Lake Lincolndale, New York
Current Conditions -  °F | °C
As of 5:53 AM on Monday 20 Oct 2014 (Local Time) from KDXR Reporting Station
Clear Clear  
Wind Chill: 31°   Ceiling: Unl
Heat Index: 31°   Visibility: 10mi
Dew Point: 28°   Wind: 3mph
Humidity: 89%   Direction: 220°SW
Pressure: 30.08"   Gusts: NA
Location:  41.3759°N, 73.7482°W
Report Text: KDXR 200953Z AUTO 22003KT 10SM CLR M01/M02 A3008 RMK AO2 SLP188 T10061022
Loading
Personal Weather Stations






























Interactive Weather Map
Tropical Storm Tracking
New forecast layout! Learn more

10-Day Weather Forecast

Advertisements
Track Severe Weather on mobile